Time;durP1;ratioP1;P1;durP2;ratioP2;P2;SDS_P1;SDS_P2;PMS_P1;PMS_P2;Temp;Humidity;BMP_temperature;BMP_pressure;BME280_temperature;BME280_humidity;BME280_pressure;Samples;Min_cycle;Max_cycle;Signal;HPM_P1;HPM_P2
2021/03/15 00:00:06;;;;;;;0.63;0.63;;;;;;;;;;5071024;28;20175;-64
2021/03/15 00:02:31;;;;;;;0.50;0.50;;;;;;;;;;5071733;28;20576;-64
2021/03/15 00:04:57;;;;;;;0.85;0.85;;;;;;;;;;5051601;28;20286;-64
2021/03/15 00:07:23;;;;;;;0.50;0.50;;;;;;;;;;5051421;28;20182;-64
2021/03/15 00:09:49;;;;;;;0.70;0.70;;;;;;;;;;5050966;28;20606;-64
2021/03/15 00:12:15;;;;;;;0.80;0.80;;;;;;;;;;5051557;28;20412;-64
2021/03/15 00:14:41;;;;;;;0.50;0.50;;;;;;;;;;5051359;28;20423;-65
2021/03/15 00:17:07;;;;;;;0.60;0.60;;;;;;;;;;5051613;28;20168;-64
2021/03/15 00:19:33;;;;;;;0.60;0.60;;;;;;;;;;5051358;28;20635;-65
2021/03/15 00:21:59;;;;;;;0.50;0.50;;;;;;;;;;5051426;28;20189;-65
2021/03/15 00:24:25;;;;;;;1.37;0.90;;;;;;;;;;5051716;28;20203;-64
2021/03/15 00:26:51;;;;;;;0.75;0.75;;;;;;;;;;5051123;28;20497;-64
2021/03/15 00:29:21;;;;;;;0.60;0.60;;;;;;;;;;5050633;28;20172;-64
2021/03/15 00:31:47;;;;;;;0.55;0.55;;;;;;;;;;5051262;28;20494;-65
2021/03/15 00:34:13;;;;;;;0.80;0.80;;;;;;;;;;5051235;28;20288;-64
2021/03/15 00:36:39;;;;;;;0.60;0.60;;;;;;;;;;5051122;28;20894;-64
2021/03/15 00:39:05;;;;;;;0.77;0.77;;;;;;;;;;5050499;28;20262;-64
2021/03/15 00:41:31;;;;;;;0.70;0.70;;;;;;;;;;5051153;28;20203;-64
2021/03/15 00:43:57;;;;;;;0.50;0.50;;;;;;;;;;5051112;28;20211;-64
2021/03/15 00:46:23;;;;;;;0.87;0.80;;;;;;;;;;5051087;28;20403;-64
2021/03/15 00:48:49;;;;;;;0.75;0.75;;;;;;;;;;5050659;28;20436;-65
2021/03/15 00:51:15;;;;;;;0.50;0.50;;;;;;;;;;5050666;28;20253;-64
2021/03/15 00:53:41;;;;;;;0.87;0.87;;;;;;;;;;5051056;28;20317;-65
2021/03/15 00:56:07;;;;;;;0.90;0.90;;;;;;;;;;5051295;28;20763;-64
2021/03/15 00:58:33;;;;;;;0.60;0.60;;;;;;;;;;5050902;28;20405;-64
2021/03/15 01:00:59;;;;;;;0.40;0.40;;;;;;;;;;5050286;28;20438;-65
2021/03/15 01:03:25;;;;;;;0.65;0.65;;;;;;;;;;5050746;28;20281;-65
2021/03/15 01:05:53;;;;;;;0.85;0.85;;;;;;;;;;5050985;28;20271;-64
2021/03/15 01:08:19;;;;;;;0.60;0.60;;;;;;;;;;5050709;28;20183;-64
2021/03/15 01:10:46;;;;;;;0.50;0.50;;;;;;;;;;5032294;28;20247;-65
2021/03/15 01:13:12;;;;;;;0.65;0.65;;;;;;;;;;5051365;28;20194;-64
2021/03/15 01:15:38;;;;;;;0.93;0.93;;;;;;;;;;5050826;28;20552;-64
2021/03/15 01:18:05;;;;;;;0.88;0.88;;;;;;;;;;5050767;28;20767;-65
2021/03/15 01:20:31;;;;;;;0.60;0.60;;;;;;;;;;5050299;28;20615;-64
2021/03/15 01:22:57;;;;;;;1.38;1.33;;;;;;;;;;5050692;28;20199;-64
2021/03/15 01:25:28;;;;;;;0.95;0.80;;;;;;;;;;5050779;28;20591;-64
2021/03/15 01:27:54;;;;;;;0.55;0.55;;;;;;;;;;5050665;28;20323;-64
2021/03/15 01:30:22;;;;;;;0.60;0.60;;;;;;;;;;5050405;28;20233;-64
2021/03/15 01:32:48;;;;;;;0.73;0.73;;;;;;;;;;5050587;28;20179;-64
2021/03/15 01:35:14;;;;;;;0.60;0.60;;;;;;;;;;5050674;28;20575;-64
2021/03/15 01:37:40;;;;;;;0.73;0.73;;;;;;;;;;5051738;28;20461;-64
2021/03/15 01:40:07;;;;;;;2.88;2.70;;;;;;;;;;5053600;28;20524;-63
2021/03/15 01:42:33;;;;;;;0.52;0.52;;;;;;;;;;5054484;28;20208;-64
2021/03/15 01:44:59;;;;;;;0.70;0.70;;;;;;;;;;5054362;28;20210;-64
2021/03/15 01:47:25;;;;;;;1.05;1.05;;;;;;;;;;5054099;28;20184;-64
2021/03/15 01:49:52;;;;;;;0.55;0.55;;;;;;;;;;5053422;28;20195;-64
2021/03/15 01:52:18;;;;;;;1.02;1.02;;;;;;;;;;5054036;28;20199;-64
2021/03/15 01:54:44;;;;;;;3.30;1.67;;;;;;;;;;5053920;28;20259;-64
2021/03/15 01:57:10;;;;;;;0.60;0.60;;;;;;;;;;5054109;28;20206;-64
2021/03/15 01:59:36;;;;;;;2.95;2.25;;;;;;;;;;5053225;28;20176;-64
2021/03/15 02:02:02;;;;;;;0.50;0.50;;;;;;;;;;5053765;28;20212;-64
2021/03/15 02:04:28;;;;;;;0.50;0.50;;;;;;;;;;5053840;28;20731;-64
2021/03/15 02:06:54;;;;;;;0.90;0.80;;;;;;;;;;5053660;28;20314;-64
2021/03/15 02:09:21;;;;;;;1.80;1.75;;;;;;;;;;5052948;28;20422;-63
2021/03/15 02:11:54;;;;;;;0.80;0.80;;;;;;;;;;5053656;28;20639;-64
2021/03/15 02:14:23;;;;;;;0.77;0.77;;;;;;;;;;5053690;28;20195;-64
2021/03/15 02:16:49;;;;;;;0.70;0.70;;;;;;;;;;5053716;28;20172;-64
2021/03/15 02:19:33;;;;;;;1.05;0.68;;;;;;;;;;5053120;28;20206;-63
2021/03/15 02:22:27;;;;;;;0.98;0.98;;;;;;;;;;5054964;28;20187;-64
2021/03/15 02:25:11;;;;;;;0.85;0.82;;;;;;;;;;5053381;28;20284;-64
2021/03/15 02:27:48;;;;;;;0.50;0.50;;;;;;;;;;5053409;28;20257;-64
2021/03/15 02:30:23;;;;;;;0.90;0.90;;;;;;;;;;5050710;28;20204;-64
2021/03/15 02:32:49;;;;;;;0.93;0.93;;;;;;;;;;5035369;28;20253;-64
2021/03/15 02:35:20;;;;;;;0.60;0.60;;;;;;;;;;5053320;28;20239;-64
2021/03/15 02:37:47;;;;;;;0.50;0.50;;;;;;;;;;5053074;28;20434;-64
2021/03/15 02:40:17;;;;;;;0.98;0.95;;;;;;;;;;5052465;28;20207;-64
2021/03/15 02:42:45;;;;;;;0.50;0.50;;;;;;;;;;5052982;28;20214;-64
2021/03/15 02:45:13;;;;;;;0.60;0.60;;;;;;;;;;5053059;28;20172;-64
2021/03/15 02:47:40;;;;;;;0.47;0.47;;;;;;;;;;5052963;28;20173;-64
2021/03/15 02:50:08;;;;;;;0.85;0.85;;;;;;;;;;5051125;28;20438;-64
2021/03/15 02:52:35;;;;;;;0.63;0.63;;;;;;;;;;5035277;28;20249;-64
2021/03/15 02:55:01;;;;;;;1.30;1.25;;;;;;;;;;5052955;28;20559;-64
2021/03/15 02:57:29;;;;;;;1.65;1.55;;;;;;;;;;5052888;28;20204;-64
2021/03/15 02:59:56;;;;;;;1.10;1.10;;;;;;;;;;5054440;28;20176;-65
2021/03/15 03:02:22;;;;;;;0.77;0.77;;;;;;;;;;5053828;28;20218;-64
2021/03/15 03:04:48;;;;;;;0.50;0.50;;;;;;;;;;5052610;28;20189;-64
2021/03/15 03:07:16;;;;;;;1.13;1.13;;;;;;;;;;5052626;28;20199;-64
2021/03/15 03:09:42;;;;;;;1.23;1.23;;;;;;;;;;5052111;28;20277;-64
2021/03/15 03:12:09;;;;;;;0.85;0.85;;;;;;;;;;5052584;28;20296;-64
2021/03/15 03:14:36;;;;;;;0.50;0.50;;;;;;;;;;5052283;28;20269;-64
2021/03/15 03:17:03;;;;;;;0.60;0.60;;;;;;;;;;5052336;28;20161;-64
2021/03/15 03:19:29;;;;;;;0.90;0.90;;;;;;;;;;5051640;28;20261;-64
2021/03/15 03:21:56;;;;;;;0.50;0.50;;;;;;;;;;5052387;28;20176;-64
2021/03/15 03:24:23;;;;;;;0.50;0.50;;;;;;;;;;5052252;28;20196;-63
2021/03/15 03:26:50;;;;;;;0.50;0.50;;;;;;;;;;5052423;28;20171;-63
2021/03/15 03:29:17;;;;;;;1.17;1.08;;;;;;;;;;5051390;28;20269;-63
2021/03/15 03:31:45;;;;;;;0.77;0.77;;;;;;;;;;5051902;28;20171;-63
2021/03/15 03:34:12;;;;;;;0.70;0.70;;;;;;;;;;5052058;28;20229;-64
2021/03/15 03:36:38;;;;;;;1.42;1.25;;;;;;;;;;5051882;28;20171;-63
2021/03/15 03:39:08;;;;;;;1.15;1.08;;;;;;;;;;5051577;28;20204;-64
2021/03/15 03:41:34;;;;;;;2.97;1.80;;;;;;;;;;5051990;28;20167;-63
2021/03/15 03:44:00;;;;;;;0.50;0.50;;;;;;;;;;5052315;28;20193;-64
2021/03/15 03:46:26;;;;;;;1.52;1.02;;;;;;;;;;5051784;28;20253;-63
2021/03/15 03:48:52;;;;;;;0.80;0.75;;;;;;;;;;5051107;28;20206;-64
2021/03/15 03:51:21;;;;;;;0.63;0.63;;;;;;;;;;5033939;28;20251;-63
2021/03/15 03:53:58;;;;;;;0.95;0.77;;;;;;;;;;5051661;28;20373;-64
2021/03/15 03:56:25;;;;;;;0.95;0.95;;;;;;;;;;5051725;28;20520;-63
2021/03/15 03:58:53;;;;;;;0.60;0.60;;;;;;;;;;5032931;28;20543;-63
2021/03/15 04:01:22;;;;;;;0.50;0.50;;;;;;;;;;5051270;28;20169;-64
2021/03/15 04:03:52;;;;;;;1.45;1.45;;;;;;;;;;5051403;28;20218;-63
2021/03/15 04:06:18;;;;;;;0.50;0.50;;;;;;;;;;5051778;28;20210;-63
2021/03/15 04:08:50;;;;;;;2.25;2.05;;;;;;;;;;5050951;28;20183;-63
2021/03/15 04:11:19;;;;;;;0.50;0.50;;;;;;;;;;5051438;28;20269;-63
2021/03/15 04:13:47;;;;;;;0.40;0.40;;;;;;;;;;5051625;28;20333;-64
2021/03/15 04:16:14;;;;;;;1.00;0.95;;;;;;;;;;5051573;28;20247;-64
2021/03/15 04:18:43;;;;;;;1.25;1.25;;;;;;;;;;5051164;28;20176;-63
2021/03/15 04:21:09;;;;;;;0.50;0.50;;;;;;;;;;5051361;28;20539;-64
2021/03/15 04:23:37;;;;;;;0.40;0.40;;;;;;;;;;5051342;28;20183;-64
2021/03/15 04:26:03;;;;;;;1.77;1.77;;;;;;;;;;5051358;28;20555;-63
2021/03/15 04:28:31;;;;;;;0.80;0.80;;;;;;;;;;5051336;28;20204;-64
2021/03/15 04:30:58;;;;;;;1.45;1.35;;;;;;;;;;5050566;28;20200;-64
2021/03/15 04:33:24;;;;;;;0.60;0.60;;;;;;;;;;5051153;28;20194;-64
2021/03/15 04:35:50;;;;;;;0.77;0.77;;;;;;;;;;5051709;28;20655;-64
2021/03/15 04:38:16;;;;;;;1.02;1.02;;;;;;;;;;5051174;28;20172;-64
2021/03/15 04:40:45;;;;;;;0.50;0.50;;;;;;;;;;5050444;28;20211;-64
2021/03/15 04:43:12;;;;;;;0.82;0.82;;;;;;;;;;5051054;28;20567;-64
2021/03/15 04:45:43;;;;;;;0.50;0.50;;;;;;;;;;5051137;28;20278;-64
2021/03/15 04:48:09;;;;;;;0.60;0.60;;;;;;;;;;5051098;28;20651;-64
2021/03/15 04:50:36;;;;;;;0.60;0.60;;;;;;;;;;5050405;28;20196;-64
2021/03/15 04:53:03;;;;;;;1.15;1.15;;;;;;;;;;5050896;28;20219;-64
2021/03/15 04:55:29;;;;;;;0.68;0.65;;;;;;;;;;5051134;28;20182;-64
2021/03/15 04:57:56;;;;;;;0.80;0.80;;;;;;;;;;5033484;28;20218;-64
2021/03/15 05:00:23;;;;;;;0.40;0.40;;;;;;;;;;5050438;28;20329;-63
2021/03/15 05:02:50;;;;;;;1.02;1.02;;;;;;;;;;5051183;28;20177;-63
2021/03/15 05:05:16;;;;;;;5.47;2.75;;;;;;;;;;5050993;28;20177;-63
2021/03/15 05:07:43;;;;;;;0.50;0.50;;;;;;;;;;5050783;28;20176;-63
2021/03/15 05:10:10;;;;;;;0.60;0.60;;;;;;;;;;5050002;28;20250;-63
2021/03/15 05:12:36;;;;;;;1.80;1.70;;;;;;;;;;5052033;28;20164;-63
2021/03/15 05:15:06;;;;;;;0.68;0.68;;;;;;;;;;5054893;28;20164;-63
2021/03/15 05:17:33;;;;;;;0.60;0.60;;;;;;;;;;5054602;28;20179;-63
2021/03/15 05:20:00;;;;;;;0.60;0.60;;;;;;;;;;5054081;28;20594;-63
2021/03/15 05:22:26;;;;;;;0.60;0.60;;;;;;;;;;5054548;28;20183;-64
2021/03/15 05:24:53;;;;;;;0.65;0.65;;;;;;;;;;5054500;28;20192;-64
2021/03/15 05:27:19;;;;;;;0.65;0.65;;;;;;;;;;5054849;28;20409;-64
2021/03/15 05:29:46;;;;;;;0.50;0.50;;;;;;;;;;5053760;28;20261;-64
2021/03/15 05:32:13;;;;;;;0.60;0.60;;;;;;;;;;5054487;28;20582;-64
2021/03/15 05:34:40;;;;;;;0.40;0.40;;;;;;;;;;5054341;28;20286;-64
2021/03/15 05:37:06;;;;;;;1.60;1.50;;;;;;;;;;5054388;28;20205;-64
2021/03/15 05:39:32;;;;;;;0.50;0.50;;;;;;;;;;5051948;28;20312;-63
2021/03/15 05:41:58;;;;;;;0.50;0.50;;;;;;;;;;5054420;28;20197;-63
2021/03/15 05:44:36;;;;;;;0.40;0.40;;;;;;;;;;5054276;28;20196;-63
2021/03/15 05:47:02;;;;;;;0.60;0.60;;;;;;;;;;5054134;28;20783;-63
2021/03/15 05:49:37;;;;;;;0.60;0.60;;;;;;;;;;5053429;28;20180;-62
2021/03/15 05:52:06;;;;;;;1.23;1.23;;;;;;;;;;5054044;28;20396;-63
2021/03/15 05:54:50;;;;;;;0.50;0.50;;;;;;;;;;5079886;22;20230;-65
2021/03/15 05:57:19;;;;;;;0.40;0.40;;;;;;;;;;5097848;28;20178;-66
2021/03/15 05:59:51;;;;;;;0.88;0.88;;;;;;;;;;5091598;28;20613;-66
2021/03/15 06:02:36;;;;;;;2.03;1.92;;;;;;;;;;5108216;28;20162;-65
2021/03/15 06:05:19;;;;;;;0.63;0.60;;;;;;;;;;5112079;28;20627;-65
2021/03/15 06:07:47;;;;;;;0.50;0.50;;;;;;;;;;5110238;28;20158;-66
2021/03/15 06:10:20;;;;;;;0.60;0.60;;;;;;;;;;5109287;28;20210;-65
2021/03/15 06:12:47;;;;;;;0.50;0.50;;;;;;;;;;5110378;28;20167;-65
2021/03/15 06:15:15;;;;;;;0.52;0.52;;;;;;;;;;5114341;28;20221;-68
2021/03/15 06:17:42;;;;;;;1.50;1.30;;;;;;;;;;5113243;28;20238;-67
2021/03/15 06:20:08;;;;;;;0.60;0.60;;;;;;;;;;5100481;28;20170;-65
2021/03/15 06:22:34;;;;;;;0.50;0.50;;;;;;;;;;5106847;28;20196;-65
2021/03/15 06:25:01;;;;;;;0.65;0.65;;;;;;;;;;5101410;28;20182;-63
2021/03/15 06:27:28;;;;;;;0.60;0.60;;;;;;;;;;5105827;28;20171;-65
2021/03/15 06:29:56;;;;;;;0.70;0.70;;;;;;;;;;5107607;28;20222;-65
2021/03/15 06:32:23;;;;;;;1.50;1.38;;;;;;;;;;5107857;28;20174;-66
2021/03/15 06:34:49;;;;;;;0.80;0.80;;;;;;;;;;5107585;28;20215;-66
2021/03/15 06:37:16;;;;;;;0.50;0.50;;;;;;;;;;5107361;28;20179;-66
2021/03/15 06:39:42;;;;;;;0.88;0.88;;;;;;;;;;5088852;28;20179;-65
2021/03/15 06:42:08;;;;;;;0.60;0.60;;;;;;;;;;5074365;28;20171;-64
2021/03/15 06:44:35;;;;;;;0.57;0.57;;;;;;;;;;5073779;28;20227;-64
2021/03/15 06:47:02;;;;;;;0.50;0.50;;;;;;;;;;5073954;28;21119;-64
2021/03/15 06:49:30;;;;;;;0.60;0.60;;;;;;;;;;5072911;28;20171;-63
2021/03/15 06:52:02;;;;;;;0.50;0.50;;;;;;;;;;5073614;28;20666;-64
2021/03/15 06:54:28;;;;;;;0.50;0.50;;;;;;;;;;5073527;28;20586;-65
2021/03/15 06:57:13;;;;;;;0.88;0.88;;;;;;;;;;5072809;28;20250;-65
2021/03/15 06:59:52;;;;;;;0.60;0.60;;;;;;;;;;5076479;28;20190;-65
2021/03/15 07:02:28;;;;;;;0.50;0.50;;;;;;;;;;5078083;28;20162;-66
2021/03/15 07:04:55;;;;;;;0.95;0.95;;;;;;;;;;5077166;28;20572;-64
2021/03/15 07:07:22;;;;;;;0.60;0.60;;;;;;;;;;5072997;28;20168;-65
2021/03/15 07:09:48;;;;;;;0.68;0.68;;;;;;;;;;5072276;28;20207;-65
2021/03/15 07:12:18;;;;;;;0.70;0.70;;;;;;;;;;5072907;28;20171;-65
2021/03/15 07:14:45;;;;;;;0.75;0.75;;;;;;;;;;5072653;28;20701;-64
2021/03/15 07:17:19;;;;;;;0.50;0.50;;;;;;;;;;5072481;28;20175;-64
2021/03/15 07:19:45;;;;;;;0.50;0.50;;;;;;;;;;5071811;28;20177;-64
2021/03/15 07:22:19;;;;;;;1.17;1.13;;;;;;;;;;5054616;28;20551;-65
2021/03/15 07:24:45;;;;;;;0.50;0.50;;;;;;;;;;5054674;28;20577;-66
2021/03/15 07:27:11;;;;;;;0.50;0.50;;;;;;;;;;5072264;28;20256;-65
2021/03/15 07:29:37;;;;;;;0.50;0.50;;;;;;;;;;5071823;28;20617;-65
2021/03/15 07:32:03;;;;;;;0.60;0.60;;;;;;;;;;5072803;28;20180;-67
2021/03/15 07:34:29;;;;;;;0.88;0.88;;;;;;;;;;5083608;28;20198;-66
2021/03/15 07:36:59;;;;;;;0.57;0.57;;;;;;;;;;5065798;28;20179;-64
2021/03/15 07:39:28;;;;;;;0.75;0.75;;;;;;;;;;5080750;28;20246;-64
2021/03/15 07:41:55;;;;;;;0.70;0.70;;;;;;;;;;5076531;28;20167;-64
2021/03/15 07:44:25;;;;;;;0.60;0.60;;;;;;;;;;5077333;28;20179;-63
2021/03/15 07:46:53;;;;;;;0.40;0.40;;;;;;;;;;5081234;28;20187;-64
2021/03/15 07:49:29;;;;;;;0.65;0.65;;;;;;;;;;5079373;28;20176;-64
2021/03/15 07:51:56;;;;;;;0.82;0.82;;;;;;;;;;5077633;28;20224;-64
2021/03/15 07:54:23;;;;;;;0.50;0.50;;;;;;;;;;5079804;28;20218;-64
2021/03/15 07:56:49;;;;;;;0.50;0.50;;;;;;;;;;5078862;28;20167;-64
2021/03/15 07:59:15;;;;;;;0.60;0.60;;;;;;;;;;5080046;28;20224;-64
2021/03/15 08:01:42;;;;;;;0.40;0.40;;;;;;;;;;5081801;28;20179;-64
2021/03/15 08:04:08;;;;;;;0.40;0.40;;;;;;;;;;5053488;28;20191;-64
2021/03/15 08:06:34;;;;;;;1.20;1.17;;;;;;;;;;5071668;28;20202;-64
2021/03/15 08:09:00;;;;;;;0.50;0.50;;;;;;;;;;5071009;28;20207;-63
2021/03/15 08:11:27;;;;;;;0.70;0.70;;;;;;;;;;5071447;28;20206;-63
2021/03/15 08:13:59;;;;;;;0.50;0.50;;;;;;;;;;5071468;28;20584;-63
2021/03/15 08:16:25;;;;;;;0.60;0.60;;;;;;;;;;5071478;28;20171;-64
2021/03/15 08:18:53;;;;;;;0.70;0.70;;;;;;;;;;5071269;28;20573;-63
2021/03/15 08:21:32;;;;;;;0.50;0.50;;;;;;;;;;5091399;28;20511;-65
2021/03/15 08:23:58;;;;;;;0.50;0.50;;;;;;;;;;5073089;28;20290;-65
2021/03/15 08:26:25;;;;;;;1.67;0.63;;;;;;;;;;5091202;28;20688;-65
2021/03/15 08:28:53;;;;;;;0.40;0.40;;;;;;;;;;5090245;28;20185;-65
2021/03/15 08:31:27;;;;;;;0.40;0.40;;;;;;;;;;5090636;28;20724;-65
2021/03/15 08:33:53;;;;;;;0.43;0.43;;;;;;;;;;5093493;28;20221;-65
2021/03/15 08:36:19;;;;;;;0.50;0.50;;;;;;;;;;5091521;28;20223;-65
2021/03/15 08:38:45;;;;;;;0.47;0.47;;;;;;;;;;5090330;28;20210;-64
2021/03/15 08:41:12;;;;;;;0.70;0.70;;;;;;;;;;5090717;28;20179;-64
2021/03/15 08:43:39;;;;;;;0.40;0.40;;;;;;;;;;5090957;28;20566;-64
2021/03/15 08:46:07;;;;;;;1.15;0.93;;;;;;;;;;5091300;28;20173;-65
2021/03/15 08:48:36;;;;;;;0.50;0.50;;;;;;;;;;5094809;28;20704;-65
2021/03/15 08:51:03;;;;;;;0.65;0.65;;;;;;;;;;5094158;28;20237;-65
2021/03/15 08:53:41;;;;;;;0.50;0.50;;;;;;;;;;5094650;28;20199;-65
2021/03/15 08:56:14;;;;;;;0.88;0.88;;;;;;;;;;5094871;28;20170;-65
2021/03/15 08:58:41;;;;;;;0.77;0.77;;;;;;;;;;5094483;28;20172;-64
2021/03/15 09:01:12;;;;;;;0.60;0.60;;;;;;;;;;5093813;28;20173;-64
2021/03/15 09:03:51;;;;;;;0.50;0.50;;;;;;;;;;5094567;28;20194;-64
2021/03/15 09:06:37;;;;;;;0.40;0.40;;;;;;;;;;5094666;28;20170;-64
2021/03/15 09:09:08;;;;;;;0.50;0.50;;;;;;;;;;5083110;28;20190;-65
2021/03/15 09:11:37;;;;;;;0.98;0.98;;;;;;;;;;5094201;28;20674;-64
2021/03/15 09:14:20;;;;;;;0.40;0.40;;;;;;;;;;5094458;28;20214;-63
2021/03/15 09:16:53;;;;;;;0.70;0.70;;;;;;;;;;5094420;28;20167;-64
2021/03/15 09:19:26;;;;;;;0.50;0.50;;;;;;;;;;5093720;28;20170;-64
2021/03/15 09:21:59;;;;;;;0.40;0.40;;;;;;;;;;5094325;28;20190;-64
2021/03/15 09:24:37;;;;;;;0.40;0.40;;;;;;;;;;5094165;28;20742;-64
2021/03/15 09:27:05;;;;;;;0.50;0.50;;;;;;;;;;5094184;28;20188;-64
2021/03/15 09:29:33;;;;;;;1.15;0.73;;;;;;;;;;5093449;28;20268;-64
2021/03/15 09:32:00;;;;;;;0.60;0.60;;;;;;;;;;5093999;28;20307;-64
2021/03/15 09:34:27;;;;;;;0.80;0.80;;;;;;;;;;5094220;28;20268;-62
2021/03/15 09:36:58;;;;;;;0.50;0.50;;;;;;;;;;5075929;28;20176;-65
2021/03/15 09:39:25;;;;;;;0.60;0.60;;;;;;;;;;5093421;28;20601;-64
2021/03/15 09:41:51;;;;;;;0.45;0.45;;;;;;;;;;5075817;28;20181;-63
2021/03/15 09:44:24;;;;;;;0.50;0.50;;;;;;;;;;5093877;28;20189;-64
2021/03/15 09:46:51;;;;;;;0.50;0.50;;;;;;;;;;5093818;28;20178;-63
2021/03/15 09:49:37;;;;;;;0.80;0.75;;;;;;;;;;5093152;28;20542;-64
2021/03/15 09:52:22;;;;;;;0.50;0.50;;;;;;;;;;5093532;28;20183;-64
2021/03/15 09:54:51;;;;;;;0.50;0.50;;;;;;;;;;5093548;28;20203;-64
2021/03/15 09:57:18;;;;;;;0.40;0.40;;;;;;;;;;5093598;28;20169;-64
2021/03/15 09:59:44;;;;;;;0.60;0.60;;;;;;;;;;5073655;28;20262;-65
2021/03/15 10:02:10;;;;;;;1.50;1.50;;;;;;;;;;5093582;28;20226;-64
2021/03/15 10:04:37;;;;;;;0.40;0.40;;;;;;;;;;5093169;28;20242;-64
2021/03/15 10:07:06;;;;;;;0.50;0.50;;;;;;;;;;5093829;28;20178;-64
2021/03/15 10:09:33;;;;;;;0.80;0.80;;;;;;;;;;5092864;28;20203;-64
2021/03/15 10:12:00;;;;;;;0.50;0.50;;;;;;;;;;5093292;28;20171;-65
2021/03/15 10:14:26;;;;;;;0.40;0.40;;;;;;;;;;5093317;28;20230;-64
2021/03/15 10:16:56;;;;;;;0.40;0.40;;;;;;;;;;5093159;28;20175;-65
2021/03/15 10:19:27;;;;;;;0.50;0.50;;;;;;;;;;5092474;28;20238;-64
2021/03/15 10:21:54;;;;;;;0.40;0.40;;;;;;;;;;5093107;28;20167;-64
2021/03/15 10:24:46;;;;;;;0.63;0.52;;;;;;;;;;5093019;28;20539;-64
2021/03/15 10:27:29;;;;;;;0.50;0.50;;;;;;;;;;5090291;28;20189;-64
2021/03/15 10:29:56;;;;;;;0.40;0.40;;;;;;;;;;5092370;28;20233;-64
2021/03/15 10:32:24;;;;;;;1.58;1.00;;;;;;;;;;5093045;28;20181;-64
2021/03/15 10:34:57;;;;;;;0.88;0.88;;;;;;;;;;5092930;28;20195;-65
2021/03/15 10:37:24;;;;;;;0.40;0.40;;;;;;;;;;5092269;28;20173;-64
2021/03/15 10:39:51;;;;;;;0.60;0.60;;;;;;;;;;5091965;28;20179;-64
2021/03/15 10:42:18;;;;;;;0.40;0.40;;;;;;;;;;5092785;28;20232;-65
2021/03/15 10:44:44;;;;;;;0.40;0.40;;;;;;;;;;5092828;28;20227;-64
2021/03/15 10:47:13;;;;;;;0.60;0.60;;;;;;;;;;5092551;28;20674;-65
2021/03/15 10:49:39;;;;;;;0.60;0.60;;;;;;;;;;5092118;28;20174;-64
2021/03/15 10:52:05;;;;;;;0.60;0.60;;;;;;;;;;5092827;28;20607;-63
2021/03/15 10:54:32;;;;;;;0.85;0.85;;;;;;;;;;5092397;28;20293;-65
2021/03/15 10:57:08;;;;;;;0.50;0.50;;;;;;;;;;5092527;28;20164;-64
2021/03/15 10:59:35;;;;;;;0.60;0.60;;;;;;;;;;5091913;28;20250;-66
2021/03/15 11:02:01;;;;;;;0.50;0.50;;;;;;;;;;5073742;28;20181;-64
2021/03/15 11:04:37;;;;;;;0.60;0.60;;;;;;;;;;5092549;28;20683;-64
2021/03/15 11:07:18;;;;;;;1.35;1.35;;;;;;;;;;5092362;28;20179;-64
2021/03/15 11:10:01;;;;;;;0.57;0.57;;;;;;;;;;5090826;28;20702;-64
2021/03/15 11:12:37;;;;;;;1.08;1.08;;;;;;;;;;5092133;28;20196;-64
2021/03/15 11:15:11;;;;;;;0.50;0.50;;;;;;;;;;5092104;28;20183;-65
2021/03/15 11:17:37;;;;;;;0.50;0.50;;;;;;;;;;5092025;28;20172;-64
2021/03/15 11:20:05;;;;;;;0.40;0.40;;;;;;;;;;5090981;28;20189;-64
2021/03/15 11:22:43;;;;;;;1.00;1.00;;;;;;;;;;5091917;28;20182;-64
2021/03/15 11:25:10;;;;;;;0.50;0.50;;;;;;;;;;5091949;28;20188;-63
2021/03/15 11:27:36;;;;;;;0.40;0.40;;;;;;;;;;5092033;28;20208;-64
2021/03/15 11:30:03;;;;;;;0.65;0.65;;;;;;;;;;5091236;28;20239;-64
2021/03/15 11:32:29;;;;;;;0.50;0.50;;;;;;;;;;5091625;28;20206;-64
2021/03/15 11:34:55;;;;;;;0.40;0.40;;;;;;;;;;5091714;28;20225;-64
2021/03/15 11:37:27;;;;;;;0.60;0.60;;;;;;;;;;5091724;28;20200;-64
2021/03/15 11:39:53;;;;;;;0.50;0.50;;;;;;;;;;5091060;28;20172;-64
2021/03/15 11:42:23;;;;;;;0.52;0.52;;;;;;;;;;5091688;28;20173;-64
2021/03/15 11:44:49;;;;;;;0.85;0.85;;;;;;;;;;5091676;28;20196;-64
2021/03/15 11:47:15;;;;;;;1.25;0.77;;;;;;;;;;5091653;28;20177;-64
2021/03/15 11:49:41;;;;;;;0.40;0.40;;;;;;;;;;5090759;28;20164;-64
2021/03/15 11:52:07;;;;;;;0.53;0.53;;;;;;;;;;5091678;28;20169;-64
2021/03/15 11:54:33;;;;;;;0.40;0.40;;;;;;;;;;5077928;22;20502;-64
2021/03/15 11:56:59;;;;;;;0.45;0.45;;;;;;;;;;5010991;28;20543;-64
2021/03/15 11:59:25;;;;;;;0.40;0.40;;;;;;;;;;5010803;28;20183;-64
2021/03/15 12:01:51;;;;;;;0.50;0.50;;;;;;;;;;5011862;28;20184;-64
2021/03/15 12:04:17;;;;;;;0.70;0.70;;;;;;;;;;5011491;28;20223;-64
2021/03/15 12:06:43;;;;;;;0.50;0.50;;;;;;;;;;5011277;28;20230;-64
2021/03/15 12:09:10;;;;;;;0.65;0.65;;;;;;;;;;5010246;28;20437;-64
2021/03/15 12:11:36;;;;;;;1.00;1.00;;;;;;;;;;5011120;28;20212;-64
2021/03/15 12:14:02;;;;;;;0.40;0.40;;;;;;;;;;5011333;28;20311;-64
2021/03/15 12:16:28;;;;;;;0.60;0.60;;;;;;;;;;5011649;28;20409;-64
2021/03/15 12:18:56;;;;;;;1.58;1.40;;;;;;;;;;5010853;28;20173;-64
2021/03/15 12:21:23;;;;;;;1.00;0.95;;;;;;;;;;5011363;28;20176;-64
2021/03/15 12:23:49;;;;;;;0.50;0.50;;;;;;;;;;5011454;28;20181;-64
2021/03/15 12:26:15;;;;;;;0.60;0.60;;;;;;;;;;5012793;28;20726;-64
2021/03/15 12:28:41;;;;;;;2.78;1.35;;;;;;;;;;5011333;28;20187;-64
2021/03/15 12:31:07;;;;;;;5.45;1.42;;;;;;;;;;5010945;28;20282;-64
2021/03/15 12:33:33;;;;;;;0.80;0.60;;;;;;;;;;5011542;28;20567;-64
2021/03/15 12:35:59;;;;;;;0.50;0.50;;;;;;;;;;5011522;28;20430;-64
2021/03/15 12:38:25;;;;;;;0.55;0.55;;;;;;;;;;5011368;28;20175;-64
2021/03/15 12:40:51;;;;;;;0.70;0.70;;;;;;;;;;5019580;28;20174;-64
2021/03/15 12:43:17;;;;;;;1.00;1.00;;;;;;;;;;5014811;28;20204;-65
2021/03/15 12:45:43;;;;;;;0.95;0.95;;;;;;;;;;5011209;28;20227;-64
2021/03/15 12:48:09;;;;;;;0.87;0.87;;;;;;;;;;5011256;28;20681;-64
2021/03/15 12:50:36;;;;;;;0.95;0.80;;;;;;;;;;5010679;28;20463;-64
2021/03/15 12:53:02;;;;;;;0.50;0.50;;;;;;;;;;5011393;28;20176;-64
2021/03/15 12:55:28;;;;;;;0.65;0.63;;;;;;;;;;5011328;28;20894;-64
2021/03/15 12:57:54;;;;;;;1.52;0.95;;;;;;;;;;5011134;28;20215;-64
2021/03/15 13:00:20;;;;;;;0.60;0.60;;;;;;;;;;5010818;28;20213;-64
2021/03/15 13:02:48;;;;;;;0.95;0.50;;;;;;;;;;5012429;28;20440;-64
2021/03/15 13:05:14;;;;;;;0.80;0.80;;;;;;;;;;5011192;28;20391;-64
2021/03/15 13:07:40;;;;;;;0.50;0.40;;;;;;;;;;5010988;28;20184;-64
2021/03/15 13:10:07;;;;;;;0.50;0.50;;;;;;;;;;5010232;28;20201;-64
2021/03/15 13:12:32;;;;;;;1.10;1.10;;;;;;;;;;5011103;28;20564;-64
2021/03/15 13:14:58;;;;;;;2.30;1.60;;;;;;;;;;5011004;28;20188;-64
2021/03/15 13:17:24;;;;;;;0.75;0.75;;;;;;;;;;5010664;28;20409;-64
2021/03/15 13:19:50;;;;;;;0.50;0.50;;;;;;;;;;5010344;28;20537;-64
2021/03/15 13:22:17;;;;;;;0.57;0.57;;;;;;;;;;5011054;28;20181;-64
2021/03/15 13:24:42;;;;;;;0.50;0.50;;;;;;;;;;5010855;28;20192;-64
2021/03/15 13:27:08;;;;;;;1.93;0.90;;;;;;;;;;5010858;28;20178;-64
2021/03/15 13:29:34;;;;;;;0.60;0.60;;;;;;;;;;5009944;28;20768;-64
2021/03/15 13:32:01;;;;;;;1.27;1.27;;;;;;;;;;5010511;28;20173;-64
2021/03/15 13:34:27;;;;;;;0.85;0.85;;;;;;;;;;5013752;28;20422;-64
2021/03/15 13:36:53;;;;;;;1.23;1.13;;;;;;;;;;5014386;28;20521;-64
2021/03/15 13:39:19;;;;;;;1.33;1.23;;;;;;;;;;5013561;28;20416;-64
2021/03/15 13:41:45;;;;;;;1.37;1.33;;;;;;;;;;5014178;28;20438;-64
2021/03/15 13:44:11;;;;;;;0.73;0.73;;;;;;;;;;5014091;28;20428;-64
2021/03/15 13:46:37;;;;;;;1.55;1.45;;;;;;;;;;5013966;28;20641;-64
2021/03/15 13:49:03;;;;;;;1.23;0.80;;;;;;;;;;5013430;28;21122;-63
2021/03/15 13:51:29;;;;;;;0.60;0.60;;;;;;;;;;5013444;28;20204;-64
2021/03/15 13:53:56;;;;;;;0.90;0.90;;;;;;;;;;5014152;28;20732;-64
2021/03/15 13:56:22;;;;;;;1.10;0.73;;;;;;;;;;5014040;28;20184;-64
2021/03/15 13:58:48;;;;;;;1.20;1.10;;;;;;;;;;5013441;28;20611;-64
2021/03/15 14:01:14;;;;;;;0.50;0.50;;;;;;;;;;5013026;28;20477;-64
2021/03/15 14:03:40;;;;;;;0.77;0.77;;;;;;;;;;5013594;28;20896;-64
2021/03/15 14:06:06;;;;;;;2.63;1.27;;;;;;;;;;5013820;28;20411;-64
2021/03/15 14:08:32;;;;;;;0.90;0.90;;;;;;;;;;5013682;28;20404;-64
2021/03/15 14:10:58;;;;;;;1.07;1.07;;;;;;;;;;5013015;28;20204;-64
2021/03/15 14:13:24;;;;;;;1.00;0.90;;;;;;;;;;5013808;28;20896;-63
2021/03/15 14:15:50;;;;;;;1.23;1.13;;;;;;;;;;5013200;28;20236;-63
2021/03/15 14:18:16;;;;;;;1.00;1.00;;;;;;;;;;5013617;28;20226;-63
2021/03/15 14:20:42;;;;;;;0.55;0.55;;;;;;;;;;5012824;28;20451;-63
2021/03/15 14:23:08;;;;;;;2.77;0.70;;;;;;;;;;5013195;28;20205;-63
2021/03/15 14:25:35;;;;;;;0.50;0.50;;;;;;;;;;5013293;28;20451;-63
2021/03/15 14:28:03;;;;;;;1.10;1.00;;;;;;;;;;5013425;28;20284;-63
2021/03/15 14:30:29;;;;;;;1.25;0.60;;;;;;;;;;5012640;28;20198;-63
2021/03/15 14:32:55;;;;;;;1.15;1.05;;;;;;;;;;5013453;28;20659;-63
2021/03/15 14:35:21;;;;;;;1.60;1.50;;;;;;;;;;5012925;28;20200;-63
2021/03/15 14:37:47;;;;;;;1.00;1.00;;;;;;;;;;5013000;28;20471;-63
2021/03/15 14:40:13;;;;;;;0.70;0.70;;;;;;;;;;5011405;28;20177;-63
2021/03/15 14:42:39;;;;;;;0.60;0.60;;;;;;;;;;5012784;28;20184;-63
2021/03/15 14:45:06;;;;;;;0.85;0.80;;;;;;;;;;5012879;28;20290;-63
2021/03/15 14:47:33;;;;;;;0.80;0.80;;;;;;;;;;5012981;28;20178;-63